Time;durP1;ratioP1;P1;durP2;ratioP2;P2;SDS_P1;SDS_P2;PMS_P1;PMS_P2;Temp;Humidity;BMP_temperature;BMP_pressure;BME280_temperature;BME280_humidity;BME280_pressure;Samples;Min_cycle;Max_cycle;Signal;HPM_P1;HPM_P2
2023/01/15 00:00:57;;;;;;;2.42;1.13;;;20.60;64.70;;;;;;5035383;28;89246;-93
2023/01/15 00:03:23;;;;;;;1.40;0.93;;;20.60;64.60;;;;;;5035317;28;89479;-92
2023/01/15 00:05:48;;;;;;;3.35;1.23;;;20.60;64.70;;;;;;5017939;27;87592;-91
2023/01/15 00:08:14;;;;;;;2.80;1.17;;;20.60;64.70;;;;;;5032357;28;87325;-88
2023/01/15 00:10:40;;;;;;;2.42;1.40;;;20.50;64.60;;;;;;5034781;27;88736;-91
2023/01/15 00:13:05;;;;;;;2.50;0.90;;;20.60;64.70;;;;;;5035749;28;87351;-91
2023/01/15 00:15:31;;;;;;;2.70;1.38;;;20.50;64.70;;;;;;5034588;27;87493;-92
2023/01/15 00:17:57;;;;;;;1.77;1.08;;;20.50;64.90;;;;;;5035341;27;87403;-91
2023/01/15 00:20:22;;;;;;;3.05;1.25;;;20.50;64.90;;;;;;5034944;28;88118;-91
2023/01/15 00:22:48;;;;;;;2.53;1.27;;;20.50;65.00;;;;;;5034292;28;88294;-89
2023/01/15 00:27:58;;;;;;;2.10;1.05;;;20.40;65.00;;;;;;5035178;28;90541;-92
2023/01/15 00:30:23;;;;;;;1.17;0.90;;;20.40;65.10;;;;;;5034478;28;87258;-92
2023/01/15 00:32:52;;;;;;;1.67;1.05;;;20.40;65.10;;;;;;5033598;27;88874;-88
2023/01/15 00:35:21;;;;;;;1.90;1.23;;;20.40;65.00;;;;;;5034986;28;87360;-92
2023/01/15 00:37:47;;;;;;;2.00;1.10;;;20.40;65.10;;;;;;5034813;28;87205;-91
2023/01/15 00:40:14;;;;;;;1.95;1.13;;;20.40;65.30;;;;;;5034596;27;88125;-90
2023/01/15 00:42:40;;;;;;;2.10;1.13;;;20.40;65.10;;;;;;5034535;28;88074;-91
2023/01/15 00:45:10;;;;;;;1.85;1.23;;;20.30;65.20;;;;;;5034616;27;87359;-92
2023/01/15 00:47:40;;;;;;;2.40;1.23;;;20.30;65.20;;;;;;5015662;28;90755;-93
2023/01/15 00:50:08;;;;;;;3.50;1.17;;;20.30;65.10;;;;;;5033566;28;87978;-90
2023/01/15 00:52:34;;;;;;;1.70;1.15;;;20.30;65.10;;;;;;5033426;27;88240;-90
2023/01/15 00:55:00;;;;;;;1.42;1.00;;;20.30;65.10;;;;;;5035268;28;87408;-91
2023/01/15 00:57:25;;;;;;;1.33;1.00;;;20.30;65.20;;;;;;5035227;28;87056;-92
2023/01/15 00:59:51;;;;;;;2.00;1.30;;;20.30;65.40;;;;;;5034725;27;88641;-91
2023/01/15 01:02:17;;;;;;;1.27;0.80;;;20.20;65.60;;;;;;5033604;28;87753;-92
2023/01/15 01:04:42;;;;;;;1.77;1.02;;;20.20;65.30;;;;;;5033983;28;87075;-91
2023/01/15 01:07:09;;;;;;;2.35;1.13;;;20.20;65.30;;;;;;5035603;28;87201;-92
2023/01/15 01:09:34;;;;;;;1.77;1.02;;;20.20;65.30;;;;;;5033699;28;87376;-90
2023/01/15 01:12:00;;;;;;;2.00;0.90;;;20.20;65.40;;;;;;5033305;28;88278;-91
2023/01/15 01:14:43;;;;;;;2.65;1.13;;;20.20;65.10;;;;;;5032785;28;88812;-93
2023/01/15 01:17:09;;;;;;;2.88;1.05;;;20.20;65.90;;;;;;5033596;28;87376;-92
2023/01/15 01:19:35;;;;;;;1.88;0.93;;;20.20;65.20;;;;;;5034187;28;87175;-92
2023/01/15 01:22:01;;;;;;;1.55;0.90;;;20.20;65.50;;;;;;5034453;28;87796;-92
2023/01/15 01:24:27;;;;;;;1.63;1.00;;;20.10;65.30;;;;;;5033911;28;87236;-91
2023/01/15 01:26:52;;;;;;;1.48;0.82;;;20.10;65.30;;;;;;5013778;28;89411;-91
2023/01/15 01:29:20;;;;;;;1.50;1.00;;;20.20;65.30;;;;;;5033945;27;88529;-90
2023/01/15 01:31:46;;;;;;;2.00;1.00;;;20.20;65.40;;;;;;5015634;28;90725;-90
2023/01/15 01:34:12;;;;;;;1.45;0.90;;;20.10;65.20;;;;;;5034482;28;86926;-91
2023/01/15 01:36:40;;;;;;;1.63;0.93;;;20.10;65.40;;;;;;5033754;28;87882;-89
2023/01/15 01:39:09;;;;;;;1.00;0.80;;;20.10;65.30;;;;;;5033102;28;89194;-93
2023/01/15 01:41:35;;;;;;;1.30;0.75;;;20.10;65.40;;;;;;5034483;28;89396;-91
2023/01/15 01:44:09;;;;;;;1.48;1.00;;;20.10;65.30;;;;;;5033593;28;87377;-91
2023/01/15 01:46:38;;;;;;;2.58;0.90;;;20.10;65.30;;;;;;5034182;27;87155;-93
2023/01/15 01:49:11;;;;;;;1.85;0.90;;;20.10;65.20;;;;;;5034820;28;88036;-90
2023/01/15 01:51:43;;;;;;;1.25;0.75;;;20.10;65.40;;;;;;5016764;28;91633;-89
2023/01/15 01:54:12;;;;;;;1.60;1.00;;;20.10;65.50;;;;;;5036661;27;87012;-89
2023/01/15 01:56:38;;;;;;;2.13;0.95;;;20.00;65.10;;;;;;5037051;27;87218;-88
2023/01/15 01:59:05;;;;;;;1.88;1.13;;;20.00;65.40;;;;;;5015359;28;90133;-89
2023/01/15 02:01:31;;;;;;;1.52;0.90;;;20.00;65.30;;;;;;5018394;27;90574;-91
2023/01/15 02:03:57;;;;;;;2.50;1.10;;;20.00;65.40;;;;;;5018512;28;88447;-91
2023/01/15 02:06:25;;;;;;;2.97;1.35;;;20.00;65.40;;;;;;5036195;27;87936;-89
2023/01/15 02:08:51;;;;;;;1.23;0.90;;;20.00;65.20;;;;;;5017650;28;92151;-92
2023/01/15 02:11:20;;;;;;;2.03;1.10;;;20.00;65.30;;;;;;5035888;27;88333;-92
2023/01/15 02:14:22;;;;;;;1.77;0.88;;;20.00;65.50;;;;;;5017814;27;87078;-91
2023/01/15 02:17:10;;;;;;;1.17;0.77;;;20.00;65.70;;;;;;5017725;28;90425;-91
2023/01/15 02:20:02;;;;;;;1.92;1.15;;;19.90;65.60;;;;;;5036226;28;87961;-93
2023/01/15 02:22:36;;;;;;;2.30;1.08;;;19.90;65.60;;;;;;5017368;27;90337;-89
2023/01/15 02:25:10;;;;;;;1.42;1.10;;;19.90;65.40;;;;;;5037697;28;87406;-92
2023/01/15 02:27:39;;;;;;;1.40;1.02;;;19.90;65.40;;;;;;5036524;27;87165;-90
2023/01/15 02:30:16;;;;;;;1.55;1.05;;;19.90;65.50;;;;;;5036527;27;87977;-87
2023/01/15 02:33:09;;;;;;;2.42;0.93;;;20.00;65.50;;;;;;5037217;27;89111;-88
2023/01/15 02:35:47;;;;;;;1.33;0.75;;;19.90;65.30;;;;;;5036721;27;87675;-91
2023/01/15 02:38:18;;;;;;;1.75;1.02;;;19.90;65.60;;;;;;5037128;27;87105;-91
2023/01/15 02:40:45;;;;;;;1.35;0.80;;;19.90;65.20;;;;;;5036223;27;88942;-91
2023/01/15 02:43:14;;;;;;;1.40;0.90;;;19.90;65.30;;;;;;5037649;28;88361;-93
2023/01/15 02:45:42;;;;;;;2.95;1.45;;;19.90;65.70;;;;;;5035833;27;86957;-88
2023/01/15 02:48:12;;;;;;;1.10;0.70;;;19.90;65.30;;;;;;5036564;27;87511;-91
2023/01/15 02:50:48;;;;;;;2.00;1.00;;;19.90;65.30;;;;;;5036140;27;87102;-91
2023/01/15 02:53:20;;;;;;;1.00;0.70;;;19.80;65.30;;;;;;5035654;28;87833;-92
2023/01/15 02:55:49;;;;;;;1.10;0.70;;;19.80;65.20;;;;;;5022122;27;88753;-90
2023/01/15 02:58:23;;;;;;;1.35;0.80;;;19.80;65.30;;;;;;5035320;28;87281;-92
2023/01/15 03:00:54;;;;;;;1.23;0.80;;;19.80;65.40;;;;;;5036575;28;92632;-91
2023/01/15 03:03:45;;;;;;;2.05;1.02;;;19.80;65.30;;;;;;5035350;27;88294;-89
2023/01/15 03:06:20;;;;;;;2.05;1.10;;;19.80;65.40;;;;;;5035629;27;86901;-93
2023/01/15 03:08:46;;;;;;;3.28;0.90;;;19.80;65.40;;;;;;5035036;27;87735;-92
2023/01/15 03:11:15;;;;;;;3.40;0.80;;;19.80;65.30;;;;;;5035786;27;87576;-91
2023/01/15 03:13:41;;;;;;;;;;;19.80;65.30;;;;;;5036376;28;89057;-92
2023/01/15 03:16:36;;;;;;;0.82;0.63;;;19.80;65.60;;;;;;5037993;28;87592;-91
2023/01/15 03:19:05;;;;;;;2.33;1.27;;;19.80;65.30;;;;;;5036421;28;91371;-90
2023/01/15 03:21:35;;;;;;;1.23;0.70;;;19.80;65.30;;;;;;5035545;27;88785;-89
2023/01/15 03:24:05;;;;;;;2.50;0.98;;;19.70;65.30;;;;;;5035079;27;88309;-92
2023/01/15 03:26:31;;;;;;;1.13;0.65;;;19.80;66.30;;;;;;5034695;27;88038;-91
2023/01/15 03:28:58;;;;;;;1.38;1.02;;;19.70;65.50;;;;;;5036055;27;87174;-90
2023/01/15 03:31:23;;;;;;;1.42;0.90;;;19.70;65.50;;;;;;5035353;28;88524;-89
2023/01/15 03:33:49;;;;;;;0.98;0.60;;;19.70;65.40;;;;;;5016642;28;89798;-90
2023/01/15 03:36:15;;;;;;;1.17;0.80;;;19.70;65.60;;;;;;5036095;28;87410;-92
2023/01/15 03:38:41;;;;;;;0.82;0.65;;;19.70;65.70;;;;;;5016974;28;90203;-92
2023/01/15 03:41:28;;;;;;;1.80;0.85;;;19.70;65.40;;;;;;5035682;28;88032;-90
2023/01/15 03:44:31;;;;;;;1.50;0.90;;;19.70;65.50;;;;;;5016385;28;90135;-91
2023/01/15 03:47:05;;;;;;;1.92;0.90;;;19.70;65.60;;;;;;5000778;28;88335;-90
2023/01/15 03:50:10;;;;;;;2.40;0.98;;;19.70;65.40;;;;;;5002572;28;87224;-92
2023/01/15 03:52:54;;;;;;;0.98;0.65;;;19.70;65.40;;;;;;5002917;28;88985;-92
2023/01/15 03:55:25;;;;;;;1.17;0.70;;;19.70;65.60;;;;;;5002777;28;88316;-91
2023/01/15 03:58:02;;;;;;;2.13;0.90;;;19.70;65.50;;;;;;5002531;28;87162;-92
2023/01/15 04:00:34;;;;;;;1.00;0.80;;;19.70;65.50;;;;;;5001544;28;87040;-90
2023/01/15 04:03:03;;;;;;;1.20;0.80;;;19.60;65.40;;;;;;5001261;28;87573;-90
2023/01/15 04:05:30;;;;;;;1.33;0.80;;;19.60;65.40;;;;;;5002778;28;87390;-91
2023/01/15 04:07:57;;;;;;;0.95;0.63;;;19.60;65.50;;;;;;5003325;28;87452;-91
2023/01/15 04:10:23;;;;;;;1.60;1.10;;;19.60;65.50;;;;;;5001681;28;86941;-92
2023/01/15 04:12:49;;;;;;;0.70;0.68;;;19.60;65.50;;;;;;4985771;28;95435;-92
2023/01/15 04:15:15;;;;;;;2.35;0.75;;;19.60;65.40;;;;;;5000846;28;89813;-91
2023/01/15 04:17:41;;;;;;;2.08;0.73;;;19.60;65.50;;;;;;5001063;28;87566;-91
2023/01/15 04:20:08;;;;;;;1.80;1.00;;;19.60;65.60;;;;;;5001247;28;87287;-92
2023/01/15 04:22:35;;;;;;;1.20;0.90;;;19.60;65.40;;;;;;5002669;28;88797;-91
2023/01/15 04:25:01;;;;;;;1.40;0.75;;;19.60;65.30;;;;;;5016933;28;91536;-90
2023/01/15 04:27:27;;;;;;;0.93;0.50;;;19.50;65.40;;;;;;5034940;27;87690;-89
2023/01/15 04:29:53;;;;;;;1.73;1.02;;;19.60;65.30;;;;;;5034419;28;87340;-91
2023/01/15 04:32:19;;;;;;;1.85;0.90;;;19.70;64.90;;;;;;5015944;28;91446;-87
2023/01/15 04:34:44;;;;;;;1.27;0.63;;;19.80;65.00;;;;;;5033343;27;87495;-93
2023/01/15 04:37:10;;;;;;;1.17;0.82;;;19.90;64.50;;;;;;5034902;28;88049;-90
2023/01/15 04:39:36;;;;;;;1.55;0.68;;;19.90;64.40;;;;;;5033822;27;87408;-92
2023/01/15 04:44:45;;;;;;;1.33;1.00;;;20.10;64.20;;;;;;5034796;28;86858;-91
2023/01/15 04:47:11;;;;;;;2.80;0.90;;;20.30;63.80;;;;;;5034360;28;87824;-89
2023/01/15 04:49:37;;;;;;;2.15;0.90;;;20.40;63.20;;;;;;5033423;27;87847;-91
2023/01/15 04:52:03;;;;;;;4.65;0.82;;;20.60;63.30;;;;;;5035342;28;88360;-89
2023/01/15 04:54:29;;;;;;;2.03;0.70;;;20.70;62.90;;;;;;5034648;28;87404;-90
2023/01/15 04:56:54;;;;;;;1.20;0.75;;;20.80;62.70;;;;;;5014308;27;87639;-88
2023/01/15 04:59:23;;;;;;;1.55;0.90;;;20.80;62.50;;;;;;5030840;27;88031;-90
2023/01/15 05:01:49;;;;;;;3.50;0.85;;;20.80;62.50;;;;;;5033671;27;88871;-90
2023/01/15 05:04:15;;;;;;;1.45;0.88;;;20.90;62.50;;;;;;5033514;28;90885;-89
2023/01/15 05:06:40;;;;;;;1.50;0.93;;;20.90;62.50;;;;;;5033564;27;87467;-90
2023/01/15 05:09:06;;;;;;;1.48;1.30;;;20.90;62.80;;;;;;5020967;28;87506;-88
2023/01/15 05:11:37;;;;;;;2.63;1.05;;;20.90;62.70;;;;;;5032604;28;87267;-89
2023/01/15 05:14:03;;;;;;;1.52;1.00;;;20.80;62.80;;;;;;5032337;27;88331;-89
2023/01/15 05:16:29;;;;;;;1.77;0.90;;;20.80;63.00;;;;;;5032593;28;87416;-89
2023/01/15 05:18:58;;;;;;;2.22;1.02;;;20.70;63.20;;;;;;5033404;28;86880;-88
2023/01/15 05:21:38;;;;;;;2.72;1.20;;;20.70;63.30;;;;;;5009285;28;89191;-91
2023/01/15 05:24:07;;;;;;;1.80;1.45;;;20.60;63.40;;;;;;5010348;28;88356;-89
2023/01/15 05:26:34;;;;;;;3.05;1.50;;;20.60;63.70;;;;;;5010045;28;88112;-91
2023/01/15 05:29:00;;;;;;;2.20;1.15;;;20.60;63.40;;;;;;5009207;28;87314;-88
2023/01/15 05:31:28;;;;;;;3.13;1.63;;;20.60;63.50;;;;;;5009450;28;89144;-89
2023/01/15 05:33:54;;;;;;;2.55;1.50;;;20.60;63.40;;;;;;5008434;28;88428;-89
2023/01/15 05:36:24;;;;;;;1.88;1.30;;;20.50;63.40;;;;;;5009989;28;87180;-90
2023/01/15 05:38:49;;;;;;;;;;;20.60;63.50;;;;;;5010735;28;90603;-88
2023/01/15 05:44:05;;;;;;;1.83;1.17;;;20.60;63.40;;;;;;5011460;28;87607;-90
2023/01/15 05:46:33;;;;;;;;;;;20.50;63.40;;;;;;5010119;28;87073;-89
2023/01/15 05:49:00;;;;;;;2.42;1.33;;;20.50;63.50;;;;;;5012847;28;87508;-90
2023/01/15 05:51:26;;;;;;;2.20;1.35;;;20.50;63.40;;;;;;5008899;28;89795;-90
2023/01/15 05:53:52;;;;;;;2.97;1.30;;;20.50;63.50;;;;;;4997306;28;88657;-89
2023/01/15 05:56:18;;;;;;;2.05;1.17;;;20.40;63.30;;;;;;5010747;28;86948;-90
2023/01/15 05:58:43;;;;;;;3.03;1.42;;;20.40;63.20;;;;;;5008953;27;88592;-86
2023/01/15 06:01:10;;;;;;;2.53;1.30;;;20.40;63.50;;;;;;5032508;28;88419;-91
2023/01/15 06:03:36;;;;;;;1.92;1.27;;;20.40;63.20;;;;;;5032310;28;88142;-89
2023/01/15 06:06:03;;;;;;;3.20;1.30;;;20.50;63.10;;;;;;5033552;28;87528;-89
2023/01/15 06:08:28;;;;;;;2.97;1.50;;;20.50;63.20;;;;;;5032361;28;87969;-90
2023/01/15 06:10:54;;;;;;;2.33;1.40;;;20.60;63.00;;;;;;5031872;28;87710;-89
2023/01/15 06:13:19;;;;;;;1.90;1.10;;;20.60;62.70;;;;;;5033034;28;88208;-91
2023/01/15 06:15:45;;;;;;;2.15;1.40;;;20.60;62.90;;;;;;5032562;28;88500;-89
2023/01/15 06:18:11;;;;;;;2.55;1.08;;;20.60;63.00;;;;;;5033248;28;87472;-91
2023/01/15 06:20:41;;;;;;;3.53;1.73;;;20.60;62.90;;;;;;5011379;28;90129;-92
2023/01/15 06:23:07;;;;;;;1.45;1.23;;;20.60;62.80;;;;;;5029904;27;88083;-89
2023/01/15 06:25:48;;;;;;;1.90;1.10;;;20.60;63.00;;;;;;5027747;28;87382;-89
2023/01/15 06:28:14;;;;;;;2.53;0.95;;;20.60;63.10;;;;;;5029666;28;87332;-90
2023/01/15 06:30:39;;;;;;;2.88;1.13;;;20.50;62.90;;;;;;5028876;28;88655;-87
2023/01/15 06:33:06;;;;;;;2.70;1.20;;;20.60;63.20;;;;;;5029077;28;88276;-89
2023/01/15 06:35:32;;;;;;;3.00;1.23;;;20.50;62.90;;;;;;5030443;27;87304;-89
2023/01/15 06:37:57;;;;;;;3.95;1.00;;;20.50;62.90;;;;;;5035362;27;87508;-89
2023/01/15 06:40:25;;;;;;;2.33;1.25;;;20.50;62.80;;;;;;5036314;27;89587;-86
2023/01/15 06:48:26;;;;;;;2.03;1.10;;;20.50;62.70;;;;;;5036359;28;87569;-90
2023/01/15 06:50:55;;;;;;;2.50;0.90;;;20.50;62.60;;;;;;5036654;27;87289;-91
2023/01/15 06:53:20;;;;;;;1.40;0.98;;;20.50;62.70;;;;;;5036472;27;87491;-89
2023/01/15 06:55:46;;;;;;;2.45;1.02;;;20.50;62.60;;;;;;5026565;27;87461;-91
2023/01/15 06:58:12;;;;;;;1.17;0.80;;;20.50;62.60;;;;;;5034489;28;86799;-90
2023/01/15 07:00:41;;;;;;;2.05;1.02;;;20.50;62.60;;;;;;5035879;27;88651;-89
2023/01/15 07:03:07;;;;;;;1.33;0.80;;;20.40;62.40;;;;;;5036110;27;88389;-90
2023/01/15 07:05:32;;;;;;;2.63;1.02;;;20.50;61.70;;;;;;5033479;27;87897;-89
2023/01/15 07:07:58;;;;;;;2.97;1.20;;;20.70;60.50;;;;;;5033982;28;87385;-88
2023/01/15 07:10:24;;;;;;;1.77;1.00;;;20.60;60.50;;;;;;5033993;27;88457;-87
2023/01/15 07:12:50;;;;;;;2.17;1.15;;;20.60;59.80;;;;;;5038096;28;88349;-86
2023/01/15 07:15:15;;;;;;;2.10;0.93;;;20.70;60.40;;;;;;5038124;27;86969;-89
2023/01/15 07:17:41;;;;;;;5.53;1.50;;;20.70;61.40;;;;;;5034360;27;87234;-89
2023/01/15 07:20:07;;;;;;;7.25;1.95;;;20.70;62.80;;;;;;5033644;27;88611;-86
2023/01/15 07:22:33;;;;;;;3.50;1.20;;;20.60;63.30;;;;;;5035178;27;87932;-88
2023/01/15 07:25:06;;;;;;;3.50;1.30;;;20.60;60.40;;;;;;5034894;28;87111;-88
2023/01/15 07:27:32;;;;;;;4.18;1.33;;;20.60;60.70;;;;;;5035917;27;87418;-88
2023/01/15 07:29:57;;;;;;;6.38;1.10;;;20.60;61.80;;;;;;5014752;28;92270;-86
2023/01/15 07:32:23;;;;;;;7.20;1.52;;;20.60;61.80;;;;;;5034167;27;88942;-88
2023/01/15 07:34:49;;;;;;;2.88;1.40;;;20.50;61.90;;;;;;5033366;28;87330;-86
2023/01/15 07:37:14;;;;;;;6.07;1.15;;;20.40;62.00;;;;;;5034667;28;87106;-91
2023/01/15 07:39:40;;;;;;;2.55;0.90;;;20.50;61.90;;;;;;5034472;28;88619;-90
2023/01/15 07:50:23;;;;;;;7.35;2.53;;;20.40;62.60;;;;;;5033843;28;87517;-91
2023/01/15 07:52:49;;;;;;;19.42;3.90;;;20.40;62.40;;;;;;5012234;28;90297;-87
2023/01/15 07:55:15;;;;;;;18.17;3.63;;;20.50;61.50;;;;;;5035403;28;88249;-87
2023/01/15 07:57:41;;;;;;;8.13;2.40;;;20.40;61.90;;;;;;5015618;28;89823;-87
2023/01/15 08:00:11;;;;;;;9.13;2.47;;;20.40;62.30;;;;;;5021331;27;88528;-87
2023/01/15 08:02:36;;;;;;;12.10;2.85;;;20.40;62.50;;;;;;5016406;28;91216;-89
2023/01/15 08:05:02;;;;;;;13.55;2.92;;;20.40;62.60;;;;;;5015403;28;87491;-91
2023/01/15 08:07:28;;;;;;;14.32;3.00;;;20.50;62.30;;;;;;5033921;28;87979;-89
2023/01/15 08:09:54;;;;;;;14.50;3.08;;;20.60;62.20;;;;;;5034523;28;88567;-91
2023/01/15 08:15:13;;;;;;;7.22;2.42;;;20.70;61.90;;;;;;5034073;28;87051;-92
2023/01/15 08:17:41;;;;;;;12.43;2.30;;;20.80;61.90;;;;;;4962089;27;89176;-90
2023/01/15 08:20:13;;;;;;;10.95;2.50;;;20.80;61.70;;;;;;5009883;28;92411;-89
2023/01/15 08:22:39;;;;;;;12.73;2.90;;;20.80;61.90;;;;;;5034091;28;91184;-91
2023/01/15 08:25:07;;;;;;;7.43;2.53;;;20.80;61.80;;;;;;5016780;28;87611;-88
2023/01/15 08:27:33;;;;;;;11.38;3.08;;;20.80;61.80;;;;;;5014753;28;89923;-90
2023/01/15 08:29:59;;;;;;;10.15;3.08;;;20.80;61.70;;;;;;5015567;28;90898;-90
2023/01/15 08:32:24;;;;;;;11.02;3.25;;;20.70;61.50;;;;;;5011937;28;91845;-91
2023/01/15 08:34:50;;;;;;;18.13;3.95;;;20.70;60.70;;;;;;5033772;27;87338;-90
2023/01/15 08:37:16;;;;;;;10.63;3.35;;;20.70;57.80;;;;;;5016054;28;90502;-90
2023/01/15 08:39:41;;;;;;;12.18;2.95;;;20.70;57.10;;;;;;5014072;28;91249;-88
2023/01/15 08:42:07;;;;;;;9.20;2.72;;;20.60;59.00;;;;;;5032474;27;87715;-91
2023/01/15 08:44:36;;;;;;;13.98;3.42;;;20.60;59.60;;;;;;4978520;28;88507;-91
2023/01/15 08:47:11;;;;;;;10.83;3.03;;;20.50;60.10;;;;;;4988836;28;90847;-91
2023/01/15 08:49:37;;;;;;;11.50;2.65;;;20.60;60.70;;;;;;4988500;28;91778;-88
2023/01/15 08:52:03;;;;;;;13.32;3.22;;;20.70;60.90;;;;;;4972912;28;92086;-88
2023/01/15 08:54:28;;;;;;;14.55;3.35;;;20.70;60.60;;;;;;4981713;28;87582;-88
2023/01/15 08:56:54;;;;;;;8.82;2.63;;;20.80;58.70;;;;;;4990406;28;87343;-89
2023/01/15 08:59:19;;;;;;;13.07;2.92;;;20.80;57.90;;;;;;4973408;28;91345;-90
2023/01/15 09:01:46;;;;;;;11.05;2.90;;;21.00;57.80;;;;;;4988113;28;91157;-87
2023/01/15 09:04:14;;;;;;;10.15;2.63;;;21.10;57.70;;;;;;4989964;28;87575;-90
2023/01/15 09:06:40;;;;;;;10.15;2.90;;;21.20;57.70;;;;;;4989101;28;87268;-88
2023/01/15 09:09:05;;;;;;;5.72;2.35;;;21.20;57.50;;;;;;4988104;28;89609;-88
2023/01/15 09:11:31;;;;;;;8.73;2.58;;;21.20;57.30;;;;;;4972178;28;91803;-90
2023/01/15 09:13:57;;;;;;;11.15;2.88;;;21.30;57.20;;;;;;4990102;28;87348;-91
2023/01/15 09:16:22;;;;;;;9.18;2.60;;;21.30;56.70;;;;;;5010090;28;89738;-91
2023/01/15 09:18:48;;;;;;;8.73;2.58;;;21.30;56.90;;;;;;5013866;28;89843;-89
2023/01/15 09:21:13;;;;;;;8.27;2.50;;;21.20;57.10;;;;;;5032921;27;88047;-89
2023/01/15 09:23:39;;;;;;;8.10;2.45;;;21.20;56.60;;;;;;5032507;27;87559;-89
2023/01/15 09:26:13;;;;;;;7.63;2.45;;;21.10;54.80;;;;;;5032074;28;89335;-89
2023/01/15 09:28:39;;;;;;;11.45;2.40;;;21.00;53.50;;;;;;5013325;28;91544;-90
2023/01/15 09:31:04;;;;;;;9.48;2.58;;;20.90;52.00;;;;;;5015715;28;91402;-90
2023/01/15 09:33:30;;;;;;;11.68;3.17;;;20.80;51.40;;;;;;5007983;28;88573;-90
2023/01/15 09:35:56;;;;;;;12.48;3.10;;;20.70;50.50;;;;;;5009232;28;87222;-91
2023/01/15 09:38:21;;;;;;;7.72;2.33;;;20.70;50.20;;;;;;5011184;28;87649;-90
2023/01/15 09:40:56;;;;;;;59.28;11.43;;;20.70;49.50;;;;;;4983387;28;89943;-91
2023/01/15 09:43:34;;;;;;;52.95;13.07;;;20.60;49.30;;;;;;4992496;28;87000;-90
2023/01/15 09:46:20;;;;;;;38.83;10.38;;;20.60;49.20;;;;;;4991928;28;94820;-90
2023/01/15 09:49:21;;;;;;;43.83;11.10;;;20.60;49.10;;;;;;4998692;28;88913;-90
2023/01/15 09:52:08;;;;;;;34.03;9.10;;;20.70;49.90;;;;;;4992644;28;91659;-89
2023/01/15 09:55:04;;;;;;;28.67;6.93;;;20.70;50.10;;;;;;5007521;28;87361;-89
2023/01/15 09:57:31;;;;;;;19.63;5.22;;;20.80;48.90;;;;;;5008815;28;87476;-89
2023/01/15 10:00:02;;;;;;;21.98;5.50;;;20.80;47.20;;;;;;4990587;28;92085;-89
2023/01/15 10:02:44;;;;;;;17.20;5.40;;;20.80;48.50;;;;;;5008851;28;89302;-91
2023/01/15 10:05:09;;;;;;;22.98;6.40;;;20.80;49.40;;;;;;5025455;28;87519;-89
2023/01/15 10:07:53;;;;;;;22.50;5.93;;;20.80;50.50;;;;;;5032646;28;87512;-88
2023/01/15 10:10:23;;;;;;;18.33;5.70;;;20.80;51.20;;;;;;5032781;28;88331;-90
2023/01/15 10:12:56;;;;;;;20.30;5.47;;;20.90;52.20;;;;;;5033900;28;92058;-90
2023/01/15 10:15:46;;;;;;;20.23;5.55;;;20.80;52.90;;;;;;5033475;27;87470;-88
2023/01/15 10:18:35;;;;;;;17.17;4.70;;;20.80;53.10;;;;;;5035883;27;87664;-88
2023/01/15 10:21:36;;;;;;;17.27;6.05;;;20.80;53.40;;;;;;4933871;28;87877;-90
2023/01/15 10:24:34;;;;;;;20.73;4.97;;;20.80;53.70;;;;;;4894785;28;88364;-89
2023/01/15 10:27:24;;;;;;;15.27;5.20;;;20.80;54.30;;;;;;4894436;28;88492;-89
2023/01/15 10:29:59;;;;;;;18.17;5.53;;;20.80;55.00;;;;;;4895118;28;87297;-91
2023/01/15 10:32:55;;;;;;;15.82;4.65;;;20.70;55.20;;;;;;4895755;28;89160;-87
2023/01/15 10:35:45;;;;;;;19.23;5.25;;;20.70;55.60;;;;;;4894758;28;88072;-87
2023/01/15 10:38:27;;;;;;;19.83;5.50;;;20.80;55.30;;;;;;4895956;28;87468;-87
2023/01/15 10:40:53;;;;;;;21.35;4.70;;;20.70;56.10;;;;;;4894422;28;88422;-90
2023/01/15 10:43:40;;;;;;;17.25;5.00;;;20.70;56.70;;;;;;4895655;28;88170;-87
2023/01/15 10:46:15;;;;;;;17.42;5.30;;;20.70;56.60;;;;;;4894855;28;92331;-89
2023/01/15 10:48:45;;;;;;;15.02;4.70;;;20.70;57.00;;;;;;4894449;28;87379;-88
2023/01/15 10:51:18;;;;;;;15.55;5.22;;;20.80;56.90;;;;;;4887974;28;87212;-89
2023/01/15 10:54:07;;;;;;;21.02;6.47;;;20.90;56.80;;;;;;4895155;28;89891;-88
2023/01/15 10:57:00;;;;;;;19.83;5.63;;;21.00;56.70;;;;;;4876719;28;89980;-89
2023/01/15 10:59:50;;;;;;;20.27;6.22;;;21.00;56.40;;;;;;4914387;28;87850;-86
2023/01/15 11:02:22;;;;;;;;;;;21.10;56.60;;;;;;5003088;28;87442;-87
2023/01/15 11:04:48;;;;;;;22.67;7.10;;;21.20;56.80;;;;;;5003459;28;88490;-88
2023/01/15 11:07:15;;;;;;;28.35;7.05;;;21.20;57.60;;;;;;5003605;28;87133;-89
2023/01/15 11:09:43;;;;;;;29.17;7.50;;;21.20;57.30;;;;;;5002684;28;87211;-89
2023/01/15 11:20:54;;;;;;;26.25;7.47;;;21.10;58.00;;;;;;5000761;28;88720;-88
2023/01/15 11:23:21;;;;;;;23.88;6.72;;;21.00;58.10;;;;;;4923447;28;87534;-91
2023/01/15 11:25:52;;;;;;;27.92;7.88;;;21.00;58.10;;;;;;4931371;28;91824;-86
2023/01/15 11:28:35;;;;;;;25.08;7.22;;;21.00;58.40;;;;;;4924024;28;88060;-90
2023/01/15 11:31:01;;;;;;;24.20;7.97;;;21.00;58.40;;;;;;4905377;28;87649;-86
2023/01/15 11:33:28;;;;;;;29.98;7.55;;;21.00;59.00;;;;;;4934017;28;88226;-86
2023/01/15 11:35:59;;;;;;;24.42;7.15;;;21.00;58.70;;;;;;4951447;28;89207;-87
2023/01/15 11:38:30;;;;;;;22.25;6.70;;;21.10;58.60;;;;;;4951212;28;88312;-86
2023/01/15 11:41:01;;;;;;;23.67;6.53;;;21.10;58.10;;;;;;4950832;28;87455;-87
2023/01/15 11:52:08;;;;;;;21.02;6.00;;;21.00;57.60;;;;;;4949132;28;87722;-88
2023/01/15 11:54:37;;;;;;;14.48;4.85;;;21.00;57.40;;;;;;4949426;28;87647;-88
2023/01/15 11:57:05;;;;;;;22.33;5.95;;;21.10;57.10;;;;;;4951656;28;88541;-89
2023/01/15 11:59:31;;;;;;;18.98;6.07;;;21.10;57.30;;;;;;4968362;28;88401;-90
2023/01/15 12:02:02;;;;;;;18.25;5.32;;;21.10;57.60;;;;;;5033748;28;87204;-90
2023/01/15 12:04:43;;;;;;;18.63;4.97;;;21.10;56.90;;;;;;5034746;27;87166;-89
2023/01/15 12:07:12;;;;;;;18.10;5.28;;;21.10;56.80;;;;;;5035166;28;88435;-89
2023/01/15 12:10:10;;;;;;;14.15;5.10;;;21.20;57.10;;;;;;5034358;28;87964;-88
2023/01/15 12:13:08;;;;;;;14.48;5.18;;;21.20;57.20;;;;;;5032923;28;88447;-86
2023/01/15 12:15:54;;;;;;;16.03;5.20;;;21.10;57.30;;;;;;5031960;27;87289;-88
2023/01/15 12:18:31;;;;;;;17.83;5.07;;;21.10;57.40;;;;;;5033323;27;88086;-88
2023/01/15 12:21:09;;;;;;;17.90;5.63;;;21.00;57.80;;;;;;5033319;28;87560;-88
2023/01/15 12:23:53;;;;;;;18.55;5.38;;;20.90;57.60;;;;;;4987597;27;87925;-86
2023/01/15 12:26:38;;;;;;;20.10;5.10;;;20.90;57.00;;;;;;5031529;27;86850;-86
2023/01/15 12:29:20;;;;;;;16.42;4.50;;;20.90;57.60;;;;;;4914449;28;89113;-86
2023/01/15 12:32:00;;;;;;;15.50;4.40;;;20.90;59.30;;;;;;4951204;28;86961;-87
2023/01/15 12:34:54;;;;;;;15.00;4.32;;;20.80;60.60;;;;;;4949344;28;87504;-87
2023/01/15 12:37:51;;;;;;;12.82;4.45;;;20.80;59.10;;;;;;4934033;28;87525;-87
2023/01/15 12:40:27;;;;;;;13.02;4.18;;;20.70;65.90;;;;;;4834064;28;95203;-89
2023/01/15 12:45:53;;;;;;;13.43;4.40;;;20.70;61.20;;;;;;4862784;28;87103;-83
2023/01/15 12:48:21;;;;;;;13.07;4.13;;;20.80;59.60;;;;;;4866107;28;87317;-89
2023/01/15 12:50:51;;;;;;;13.85;4.05;;;20.90;58.50;;;;;;4856480;28;91500;-91
2023/01/15 12:53:23;;;;;;;13.52;4.32;;;21.00;58.40;;;;;;4848313;28;91316;-90
2023/01/15 12:56:06;;;;;;;12.30;4.00;;;21.00;58.60;;;;;;4846882;28;87606;-85
2023/01/15 12:58:54;;;;;;;13.57;4.15;;;21.10;58.40;;;;;;5055153;22;87582;-82
2023/01/15 13:01:30;;;;;;;10.65;3.60;;;21.20;57.60;;;;;;4989921;28;90505;-81
2023/01/15 13:04:15;;;;;;;12.27;3.83;;;21.20;58.50;;;;;;5015913;28;87860;-83
2023/01/15 13:10:06;;;;;;;16.27;4.22;;;21.20;59.20;;;;;;5150760;22;87888;-90
2023/01/15 13:12:32;;;;;;;12.88;4.20;;;21.10;58.50;;;;;;4954479;28;88671;-89
2023/01/15 13:15:01;;;;;;;12.90;3.75;;;21.10;58.60;;;;;;4942715;28;88385;-87
2023/01/15 13:24:31;;;;;;;13.45;4.22;;;21.10;58.60;;;;;;4954150;28;87030;-90
2023/01/15 13:27:38;;;;;;;13.38;3.90;;;21.10;59.00;;;;;;4959016;28;90485;-92
2023/01/15 13:30:29;;;;;;;10.52;3.55;;;21.10;59.00;;;;;;4959229;28;87033;-89
2023/01/15 13:33:05;;;;;;;8.25;3.00;;;21.20;59.20;;;;;;4881142;28;88762;-89
2023/01/15 13:35:47;;;;;;;8.13;3.53;;;21.20;59.20;;;;;;4904854;28;89203;-91
2023/01/15 13:38:20;;;;;;;11.75;3.60;;;21.30;59.20;;;;;;4916719;28;89338;-90
2023/01/15 13:50:58;;;;;;;11.32;3.75;;;21.60;58.80;;;;;;4975869;28;86935;-91
2023/01/15 13:53:34;;;;;;;11.25;3.40;;;21.60;58.80;;;;;;4976176;28;88416;-90
2023/01/15 13:56:14;;;;;;;12.55;3.10;;;21.60;58.90;;;;;;4975047;28;87401;-89
2023/01/15 13:58:55;;;;;;;7.13;2.80;;;21.60;58.80;;;;;;4976954;28;88550;-91
2023/01/15 14:08:15;;;;;;;9.15;3.03;;;21.50;58.90;;;;;;4958110;28;89978;-88
2023/01/15 14:10:41;;;;;;;9.20;3.22;;;21.60;58.80;;;;;;4978402;28;89838;-90
2023/01/15 14:13:35;;;;;;;8.98;3.10;;;21.60;58.60;;;;;;4998778;28;88004;-90
2023/01/15 14:16:19;;;;;;;7.95;3.35;;;21.60;58.80;;;;;;4936419;28;86915;-91